createdAt,value
2022-11-23T00:00:41.903Z,14.00
2022-11-23T00:03:13.246Z,14.77
2022-11-23T00:05:42.899Z,13.03
2022-11-23T00:08:11.208Z,13.40
2022-11-23T00:10:39.597Z,13.97
2022-11-23T00:13:07.907Z,12.60
2022-11-23T00:15:36.597Z,12.20
2022-11-23T00:18:04.985Z,12.37
2022-11-23T00:20:33.311Z,11.67
2022-11-23T00:23:02.967Z,11.80
2022-11-23T00:25:31.275Z,11.87
2022-11-23T00:27:59.555Z,10.63
2022-11-23T00:30:29.053Z,11.57
2022-11-23T00:32:57.438Z,11.43
2022-11-23T00:35:25.744Z,12.43
2022-11-23T00:37:54.005Z,11.17
2022-11-23T00:40:23.673Z,11.17
2022-11-23T00:42:51.963Z,10.97
2022-11-23T00:45:20.235Z,10.83
2022-11-23T00:47:48.518Z,10.37
2022-11-23T00:50:17.106Z,10.77
2022-11-23T00:52:45.435Z,10.67
2022-11-23T00:55:13.757Z,9.77
2022-11-23T00:57:43.492Z,9.27
2022-11-23T01:00:12.622Z,9.20
2022-11-23T01:02:40.912Z,10.20
2022-11-23T01:05:09.754Z,8.47
2022-11-23T01:07:38.083Z,10.33
2022-11-23T01:10:08.222Z,7.53
2022-11-23T01:12:36.478Z,9.10
2022-11-23T01:15:06.514Z,8.60
2022-11-23T01:17:34.884Z,7.13
2022-11-23T01:20:03.215Z,8.33
2022-11-23T01:22:31.466Z,8.20
2022-11-23T01:24:59.781Z,7.77
2022-11-23T01:27:28.070Z,7.07
2022-11-23T01:29:56.427Z,7.53
2022-11-23T01:32:26.084Z,6.87
2022-11-23T01:34:54.309Z,7.00
2022-11-23T01:37:22.589Z,8.20
2022-11-23T01:39:50.923Z,6.67
2022-11-23T01:42:19.250Z,7.27
2022-11-23T01:44:47.528Z,7.40
2022-11-23T01:47:15.832Z,7.10
2022-11-23T01:49:45.676Z,6.27
2022-11-23T01:52:14.639Z,6.20
2022-11-23T01:54:45.740Z,6.37
2022-11-23T01:57:14.727Z,6.33
2022-11-23T01:59:42.962Z,6.33
2022-11-23T02:02:11.214Z,6.33
2022-11-23T02:04:41.596Z,6.70
2022-11-23T02:07:11.287Z,5.57
2022-11-23T02:09:39.605Z,5.77
2022-11-23T02:12:09.239Z,6.23
2022-11-23T02:14:37.509Z,5.13
2022-11-23T02:17:05.864Z,5.60
2022-11-23T02:19:35.188Z,5.00
2022-11-23T02:22:03.473Z,5.23
2022-11-23T02:24:36.026Z,4.10
2022-11-23T02:27:06.947Z,4.53
2022-11-23T02:29:35.418Z,4.83
2022-11-23T02:32:03.746Z,4.23
2022-11-23T02:34:32.055Z,5.30
2022-11-23T02:37:00.432Z,4.60
2022-11-23T02:39:29.723Z,4.50
2022-11-23T02:41:58.451Z,4.83
2022-11-23T02:44:31.295Z,4.20
2022-11-23T02:46:59.715Z,4.63
2022-11-23T02:49:28.468Z,5.00
2022-11-23T02:51:56.799Z,3.87
2022-11-23T02:54:25.056Z,4.63
2022-11-23T02:56:53.352Z,3.50
2022-11-23T02:59:21.703Z,3.93
2022-11-23T03:01:51.381Z,4.07
2022-11-23T03:04:25.885Z,3.70
2022-11-23T03:06:55.865Z,3.10
2022-11-23T03:09:26.066Z,4.33
2022-11-23T03:11:54.379Z,3.87
2022-11-23T03:14:22.756Z,3.60
2022-11-23T03:16:52.577Z,3.23
2022-11-23T03:19:20.862Z,3.80
2022-11-23T03:21:49.150Z,2.83
2022-11-23T03:24:17.481Z,3.33
2022-11-23T03:26:45.719Z,3.47
2022-11-23T03:29:14.030Z,3.50
2022-11-23T03:31:42.414Z,3.60
2022-11-23T03:34:12.190Z,3.60
2022-11-23T03:36:40.462Z,2.60
2022-11-23T03:39:08.996Z,3.23
2022-11-23T03:41:37.292Z,3.17
2022-11-23T03:44:05.678Z,3.40
2022-11-23T03:46:34.006Z,2.23
2022-11-23T03:49:02.306Z,2.37
2022-11-23T03:51:31.993Z,2.50
2022-11-23T03:54:00.269Z,2.67
2022-11-23T03:56:28.537Z,2.93
2022-11-23T03:58:56.884Z,2.40
2022-11-23T04:01:25.944Z,2.97
2022-11-23T04:03:54.254Z,2.67
2022-11-23T04:06:22.546Z,2.27
2022-11-23T04:08:53.037Z,1.93
2022-11-23T04:11:23.526Z,2.30
2022-11-23T04:13:51.840Z,2.43
2022-11-23T04:16:20.178Z,1.93
2022-11-23T04:18:48.460Z,2.30
2022-11-23T04:21:16.675Z,1.70
2022-11-23T04:23:44.945Z,2.00
2022-11-23T04:26:14.598Z,2.30
2022-11-23T04:28:43.008Z,2.20
2022-11-23T04:31:11.384Z,2.10
2022-11-23T04:33:39.791Z,2.10
2022-11-23T04:36:08.220Z,1.60
2022-11-23T04:38:36.488Z,1.77
2022-11-23T04:41:04.749Z,2.03
2022-11-23T04:43:34.374Z,1.97
2022-11-23T04:46:02.703Z,1.70
2022-11-23T04:48:32.038Z,2.03
2022-11-23T04:51:00.371Z,2.10
2022-11-23T04:53:28.688Z,1.80
2022-11-23T04:55:57.003Z,1.73
2022-11-23T04:58:26.845Z,1.83
2022-11-23T05:00:59.141Z,1.63
2022-11-23T05:03:28.213Z,1.80
2022-11-23T05:05:56.487Z,1.30
2022-11-23T05:08:24.818Z,2.07
2022-11-23T05:10:53.134Z,1.53
2022-11-23T05:13:21.422Z,1.23
2022-11-23T05:15:49.870Z,1.30
2022-11-23T05:18:19.540Z,1.60
2022-11-23T05:20:47.863Z,1.63
2022-11-23T05:23:16.138Z,1.30
2022-11-23T05:25:44.580Z,1.17
2022-11-23T05:28:38.308Z,1.57
2022-11-23T05:31:01.958Z,1.57
2022-11-23T05:33:31.621Z,1.10
2022-11-23T05:35:59.911Z,1.23
2022-11-23T05:38:28.191Z,1.40
2022-11-23T05:40:56.523Z,1.70
2022-11-23T05:43:24.794Z,1.67
2022-11-23T05:45:53.067Z,1.47
2022-11-23T05:48:21.389Z,1.50
2022-11-23T05:50:51.576Z,1.57
2022-11-23T05:53:19.926Z,1.23
2022-11-23T05:55:48.217Z,2.00
2022-11-23T05:58:16.529Z,1.37
2022-11-23T06:00:44.807Z,1.20
2022-11-23T06:03:13.226Z,0.73
2022-11-23T06:05:41.519Z,1.10
2022-11-23T06:08:11.124Z,1.40
2022-11-23T06:10:39.464Z,1.63
2022-11-23T06:13:07.752Z,1.00
2022-11-23T06:15:36.172Z,1.57
2022-11-23T06:18:04.613Z,0.90
2022-11-23T06:20:32.886Z,0.80
2022-11-23T06:23:01.343Z,0.83
2022-11-23T06:25:31.173Z,1.10
2022-11-23T06:27:59.807Z,1.10
2022-11-23T06:30:28.396Z,1.10
2022-11-23T06:32:56.797Z,1.10
2022-11-23T06:35:25.059Z,1.03
2022-11-23T06:37:54.624Z,0.93
2022-11-23T06:40:23.132Z,1.13
2022-11-23T06:42:54.169Z,0.80
2022-11-23T06:45:22.497Z,1.17
2022-11-23T06:47:51.100Z,0.80
2022-11-23T06:50:19.542Z,0.80
2022-11-23T06:52:47.805Z,0.97
2022-11-23T06:55:16.268Z,0.90
2022-11-23T06:57:44.640Z,1.20
2022-11-23T07:00:15.191Z,0.70
2022-11-23T07:02:43.694Z,0.90
2022-11-23T07:05:11.939Z,0.83
2022-11-23T07:07:40.300Z,1.40
2022-11-23T07:10:09.450Z,0.77
2022-11-23T07:12:37.713Z,0.80
2022-11-23T07:15:06.381Z,0.60
2022-11-23T07:17:36.193Z,1.00
2022-11-23T07:20:04.488Z,1.10
2022-11-23T07:22:32.784Z,1.07
2022-11-23T07:25:01.098Z,1.00
2022-11-23T07:27:29.388Z,1.23
2022-11-23T07:29:57.711Z,1.23
2022-11-23T07:32:26.151Z,0.60
2022-11-23T07:34:55.850Z,0.87
2022-11-23T07:37:24.082Z,0.80
2022-11-23T07:39:58.224Z,0.70
2022-11-23T07:42:39.832Z,0.60
2022-11-23T07:45:11.827Z,0.60
2022-11-23T07:47:40.165Z,1.03
2022-11-23T07:50:10.661Z,0.50
2022-11-23T07:52:39.321Z,0.87
2022-11-23T07:55:08.065Z,1.07
2022-11-23T07:57:36.371Z,0.93
2022-11-23T08:00:05.357Z,0.60
2022-11-23T08:02:33.741Z,0.60
2022-11-23T08:05:02.122Z,0.50
2022-11-23T08:07:31.889Z,1.27
2022-11-23T08:10:00.250Z,0.57
2022-11-23T08:12:30.552Z,0.97
2022-11-23T08:14:58.993Z,0.60
2022-11-23T08:17:27.295Z,0.97
2022-11-23T08:19:55.597Z,0.80
2022-11-23T08:22:24.058Z,0.93
2022-11-23T08:24:53.721Z,0.50
2022-11-23T08:27:22.003Z,0.77
2022-11-23T08:29:50.340Z,0.80
2022-11-23T08:32:18.681Z,0.60
2022-11-23T08:34:46.972Z,0.60
2022-11-23T08:37:15.328Z,0.77
2022-11-23T08:39:43.592Z,0.70
2022-11-23T08:42:13.238Z,0.70
2022-11-23T08:44:41.550Z,0.60
2022-11-23T08:47:09.832Z,0.60
2022-11-23T08:49:38.111Z,0.50
2022-11-23T08:52:06.586Z,0.57
2022-11-23T08:54:35.213Z,0.50
2022-11-23T08:57:03.742Z,0.40
2022-11-23T08:59:34.328Z,0.40
2022-11-23T09:02:02.712Z,0.50
2022-11-23T09:04:31.042Z,0.70
2022-11-23T09:06:59.485Z,0.77
2022-11-23T09:09:27.758Z,0.60
2022-11-23T09:11:56.104Z,0.80
2022-11-23T09:14:24.569Z,0.70
2022-11-23T09:16:54.279Z,0.30
2022-11-23T09:19:22.688Z,1.00
2022-11-23T09:21:51.236Z,0.60
2022-11-23T09:24:19.656Z,0.50
2022-11-23T09:26:48.026Z,0.30
2022-11-23T09:29:16.437Z,0.33
2022-11-23T09:31:44.684Z,0.50
2022-11-23T09:34:15.024Z,0.63
2022-11-23T09:36:43.614Z,0.70
2022-11-23T09:39:12.873Z,0.40
2022-11-23T09:41:57.078Z,0.30
2022-11-23T09:44:26.589Z,0.30
2022-11-23T09:46:58.964Z,0.33
2022-11-23T09:49:29.712Z,0.40
2022-11-23T09:51:58.578Z,0.27
2022-11-23T09:54:27.848Z,0.60
2022-11-23T09:57:01.418Z,0.70
2022-11-23T09:59:35.613Z,0.47
2022-11-23T10:02:03.942Z,0.50
2022-11-23T10:04:35.026Z,0.57
2022-11-23T10:07:05.549Z,0.60
2022-11-23T10:09:36.135Z,0.30
2022-11-23T10:12:14.700Z,0.47
2022-11-23T10:14:48.451Z,0.40
2022-11-23T10:17:17.459Z,0.37
2022-11-23T10:19:52.150Z,0.57
2022-11-23T10:22:22.528Z,0.30
2022-11-23T10:24:51.867Z,0.50
2022-11-23T10:27:20.527Z,0.90
2022-11-23T10:29:48.871Z,0.47
2022-11-23T10:32:22.268Z,0.50
2022-11-23T10:34:53.227Z,0.53
2022-11-23T10:37:21.522Z,0.43
2022-11-23T10:39:49.811Z,0.60
2022-11-23T10:42:20.363Z,0.40
2022-11-23T10:44:48.750Z,0.37
2022-11-23T10:47:22.513Z,0.60
2022-11-23T10:49:58.085Z,0.60
2022-11-23T10:52:28.106Z,0.50
2022-11-23T10:54:56.566Z,0.33
2022-11-23T10:57:30.661Z,0.40
2022-11-23T10:59:59.657Z,0.33
2022-11-23T11:02:28.007Z,0.50
2022-11-23T11:05:23.305Z,0.77
2022-11-23T11:07:59.968Z,0.60
2022-11-23T11:10:35.510Z,0.83
2022-11-23T11:13:03.822Z,0.50
2022-11-23T11:15:32.398Z,0.30
2022-11-23T11:18:01.502Z,0.40
2022-11-23T11:20:34.782Z,0.30
2022-11-23T11:23:03.869Z,0.33
2022-11-23T11:25:32.796Z,0.30
2022-11-23T11:28:01.061Z,0.40
2022-11-23T11:30:30.502Z,0.77
2022-11-23T11:33:00.205Z,0.67
2022-11-23T11:35:28.865Z,0.40
2022-11-23T11:37:59.409Z,0.50
2022-11-23T11:40:29.899Z,0.53
2022-11-23T11:42:58.887Z,0.37
2022-11-23T11:45:27.787Z,0.83
2022-11-23T11:47:58.247Z,0.40
2022-11-23T11:50:31.474Z,0.20
2022-11-23T11:53:03.774Z,0.70
2022-11-23T11:55:32.981Z,0.50
2022-11-23T11:58:04.063Z,0.53
2022-11-23T12:00:32.655Z,0.47
2022-11-23T12:03:03.256Z,0.53
2022-11-23T12:05:32.525Z,0.57
2022-11-23T12:08:03.827Z,0.40
2022-11-23T12:10:34.971Z,0.57
2022-11-23T12:13:03.252Z,0.60
2022-11-23T12:15:51.555Z,0.70
2022-11-23T12:18:40.709Z,0.30
2022-11-23T12:21:13.786Z,0.60
2022-11-23T12:23:47.067Z,0.70
2022-11-23T12:26:19.390Z,0.50
2022-11-23T12:28:50.749Z,0.33
2022-11-23T12:31:20.835Z,0.43
2022-11-23T12:34:05.360Z,0.40
2022-11-23T12:36:41.129Z,0.50
2022-11-23T12:39:13.714Z,0.60
2022-11-23T12:41:43.849Z,0.53
2022-11-23T12:44:34.831Z,0.57
2022-11-23T12:47:03.926Z,0.40
2022-11-23T12:49:38.824Z,0.67
2022-11-23T12:52:10.362Z,0.67
2022-11-23T12:54:43.642Z,0.40
2022-11-23T12:57:15.236Z,0.43
2022-11-23T12:59:45.366Z,0.40
2022-11-23T13:02:16.012Z,0.37
2022-11-23T13:04:53.965Z,0.40
2022-11-23T13:07:44.658Z,0.73
2022-11-23T13:10:19.238Z,0.90
2022-11-23T13:12:54.920Z,0.30
2022-11-23T13:15:34.978Z,0.23
2022-11-23T13:18:06.113Z,0.50
2022-11-23T13:20:43.418Z,0.50
2022-11-23T13:23:12.162Z,0.30
2022-11-23T13:25:41.851Z,0.50
2022-11-23T13:28:25.032Z,0.70
2022-11-23T13:33:44.794Z,0.50
2022-11-23T13:36:18.457Z,0.30
2022-11-23T13:38:48.146Z,0.40
2022-11-23T13:41:35.159Z,0.53
2022-11-23T13:44:13.728Z,0.40
2022-11-23T13:46:42.045Z,0.67
2022-11-23T13:49:26.021Z,0.50
2022-11-23T13:52:05.500Z,0.47
2022-11-23T13:54:34.371Z,0.30
2022-11-23T13:57:03.401Z,0.30
2022-11-23T13:59:34.889Z,0.40
2022-11-23T14:02:18.180Z,0.40
2022-11-23T14:04:46.949Z,0.93
2022-11-23T14:07:16.993Z,0.63
2022-11-23T14:09:46.203Z,0.33
2022-11-23T14:12:16.353Z,0.40
2022-11-23T14:14:48.553Z,0.60
2022-11-23T14:17:43.877Z,0.40
2022-11-23T14:20:25.062Z,0.67
2022-11-23T14:22:57.065Z,0.30
2022-11-23T14:25:29.677Z,0.50
2022-11-23T14:27:59.742Z,0.50
2022-11-23T14:30:35.947Z,0.70
2022-11-23T14:33:07.706Z,0.30
2022-11-23T14:35:40.874Z,0.60
2022-11-23T14:38:17.395Z,0.60
2022-11-23T14:40:49.449Z,0.47
2022-11-23T14:43:19.140Z,0.50
2022-11-23T14:45:48.919Z,0.50
2022-11-23T14:48:24.012Z,0.40
2022-11-23T14:50:55.704Z,0.50
2022-11-23T14:53:24.328Z,0.50
2022-11-23T14:55:52.626Z,0.43
2022-11-23T14:58:23.590Z,0.70
2022-11-23T15:00:53.424Z,0.90
2022-11-23T15:03:49.314Z,0.43
2022-11-23T15:06:12.470Z,0.50
2022-11-23T15:08:43.876Z,0.40
2022-11-23T15:11:13.015Z,0.73
2022-11-23T15:13:44.198Z,0.73
2022-11-23T15:16:14.850Z,0.57
2022-11-23T15:18:43.571Z,0.30
2022-11-23T15:21:16.344Z,0.40
2022-11-23T15:23:45.055Z,0.60
2022-11-23T15:26:34.764Z,1.20
2022-11-23T15:29:03.070Z,0.30
2022-11-23T15:31:35.199Z,0.60
2022-11-23T15:34:04.538Z,0.53
2022-11-23T15:36:35.747Z,0.40
2022-11-23T15:39:05.975Z,0.50
2022-11-23T15:41:34.285Z,0.53
2022-11-23T15:44:02.895Z,0.63
2022-11-23T15:46:37.064Z,0.50
2022-11-23T15:49:05.738Z,0.60
2022-11-23T15:51:34.853Z,0.50
2022-11-23T15:54:03.264Z,0.30
2022-11-23T15:56:32.394Z,0.70
2022-11-23T15:59:00.842Z,0.47
2022-11-23T16:01:29.226Z,0.50
2022-11-23T16:04:02.090Z,0.80
2022-11-23T16:06:35.504Z,0.87
2022-11-23T16:09:07.380Z,0.57
2022-11-23T16:11:46.079Z,0.40
2022-11-23T16:14:15.258Z,0.70
2022-11-23T16:16:46.003Z,0.97
2022-11-23T16:19:26.113Z,0.70
2022-11-23T16:22:00.542Z,0.70
2022-11-23T16:24:31.089Z,0.93
2022-11-23T16:26:59.669Z,0.53
2022-11-23T16:29:28.654Z,0.40
2022-11-23T16:31:57.985Z,0.60
2022-11-23T16:34:28.239Z,0.50
2022-11-23T16:36:56.840Z,1.10
2022-11-23T16:39:25.634Z,0.70
2022-11-23T16:41:53.995Z,0.47
2022-11-23T16:44:22.335Z,0.50
2022-11-23T16:46:50.840Z,0.87
2022-11-23T16:49:19.483Z,0.40
2022-11-23T16:51:56.501Z,0.40
2022-11-23T16:54:25.752Z,0.60
2022-11-23T16:56:54.281Z,0.50
2022-11-23T16:59:23.791Z,0.40
2022-11-23T17:01:57.007Z,0.73
2022-11-23T17:04:26.192Z,0.70
2022-11-23T17:06:55.991Z,0.50
2022-11-23T17:09:24.241Z,0.40
2022-11-23T17:11:52.679Z,0.93
2022-11-23T17:14:25.345Z,0.50
2022-11-23T17:16:56.790Z,0.60
2022-11-23T17:19:28.341Z,0.80
2022-11-23T17:21:58.175Z,0.70
2022-11-23T17:24:26.504Z,0.60
2022-11-23T17:26:54.897Z,0.60
2022-11-23T17:29:24.258Z,0.50
2022-11-23T17:31:52.642Z,0.50
2022-11-23T17:34:20.928Z,0.43
2022-11-23T17:36:49.416Z,0.60
2022-11-23T17:39:19.423Z,0.60
2022-11-23T17:41:49.144Z,0.50
2022-11-23T17:44:17.679Z,0.40
2022-11-23T17:46:46.034Z,0.50
2022-11-23T17:49:14.758Z,0.37
2022-11-23T17:51:43.462Z,0.60
2022-11-23T17:54:11.787Z,0.70
2022-11-23T17:56:41.613Z,0.57
2022-11-23T17:59:10.245Z,0.50
2022-11-23T18:01:38.522Z,0.50
2022-11-23T18:04:06.966Z,0.60
2022-11-23T18:06:35.308Z,0.63
2022-11-23T18:09:03.591Z,0.87
2022-11-23T18:11:31.893Z,0.60
2022-11-23T18:14:03.286Z,0.80
2022-11-23T18:16:31.926Z,1.17
2022-11-23T18:19:00.310Z,0.60
2022-11-23T18:21:28.574Z,0.80
2022-11-23T18:24:01.468Z,0.87
2022-11-23T18:26:32.512Z,1.20
2022-11-23T18:29:02.187Z,0.97
2022-11-23T18:31:30.709Z,1.00
2022-11-23T18:33:59.075Z,1.00
2022-11-23T18:36:27.312Z,1.23
2022-11-23T18:38:55.764Z,1.10
2022-11-23T18:41:24.075Z,1.53
2022-11-23T18:43:52.354Z,1.53
2022-11-23T18:46:22.143Z,1.03
2022-11-23T18:48:51.029Z,1.27
2022-11-23T18:51:19.450Z,1.27
2022-11-23T18:53:50.077Z,1.20
2022-11-23T18:56:19.322Z,1.43
2022-11-23T18:58:47.978Z,1.10
2022-11-23T19:01:18.001Z,1.10
2022-11-23T19:03:47.992Z,1.20
2022-11-23T19:06:16.537Z,1.70
2022-11-23T19:08:45.344Z,1.60
2022-11-23T19:11:16.318Z,1.07
2022-11-23T19:13:44.912Z,1.73
2022-11-23T19:16:13.919Z,1.23
2022-11-23T19:18:42.562Z,1.37
2022-11-23T19:21:16.072Z,1.40
2022-11-23T19:23:44.605Z,1.63
2022-11-23T19:26:12.916Z,1.50
2022-11-23T19:28:44.778Z,1.67
2022-11-23T19:31:14.036Z,1.43
2022-11-23T19:33:42.574Z,1.60
2022-11-23T19:36:11.671Z,1.10
2022-11-23T19:38:41.362Z,1.30
2022-11-23T19:41:09.837Z,1.20
2022-11-23T19:43:38.264Z,1.30
2022-11-23T19:46:07.186Z,2.10
2022-11-23T19:48:35.683Z,2.20
2022-11-23T19:51:04.528Z,1.60
2022-11-23T19:53:33.152Z,1.30
2022-11-23T19:56:06.136Z,1.53
2022-11-23T19:58:34.512Z,2.00
2022-11-23T20:01:03.298Z,1.87
2022-11-23T20:03:31.802Z,1.27
2022-11-23T20:06:00.807Z,1.70
2022-11-23T20:08:29.471Z,1.50
2022-11-23T20:10:57.918Z,2.07
2022-11-23T20:13:27.599Z,1.47
2022-11-23T20:15:57.619Z,2.50
2022-11-23T20:18:29.721Z,1.13
2022-11-23T20:20:58.306Z,2.23
2022-11-23T20:23:26.797Z,2.33
2022-11-23T20:25:57.624Z,1.83
2022-11-23T20:28:26.226Z,1.60
2022-11-23T20:30:56.110Z,1.67
2022-11-23T20:33:24.570Z,2.07
2022-11-23T20:35:53.389Z,2.07
2022-11-23T20:38:21.833Z,1.93
2022-11-23T20:40:50.575Z,1.77
2022-11-23T20:43:19.017Z,1.53
2022-11-23T20:45:47.297Z,2.03
2022-11-23T20:48:16.969Z,1.83
2022-11-23T20:50:45.405Z,2.13
2022-11-23T20:53:13.677Z,1.73
2022-11-23T20:55:41.980Z,1.37
2022-11-23T20:58:10.471Z,1.67
2022-11-23T21:00:38.757Z,1.50
2022-11-23T21:03:07.122Z,1.93
2022-11-23T21:05:38.340Z,1.80
2022-11-23T21:08:06.715Z,2.03
2022-11-23T21:10:52.439Z,1.47
2022-11-23T21:13:49.308Z,1.73
2022-11-23T21:16:18.273Z,1.97
2022-11-23T21:18:46.749Z,2.00
2022-11-23T21:21:16.600Z,1.90
2022-11-23T21:23:49.434Z,2.13
2022-11-23T21:26:21.456Z,2.00
2022-11-23T21:28:49.909Z,1.73
2022-11-23T21:31:18.245Z,2.13
2022-11-23T21:33:49.510Z,1.40
2022-11-23T21:36:23.669Z,1.57
2022-11-23T21:38:51.991Z,1.93
2022-11-23T21:41:20.285Z,1.57
2022-11-23T21:43:52.689Z,2.00
2022-11-23T21:46:21.579Z,1.63
2022-11-23T21:48:49.975Z,1.37
2022-11-23T21:51:18.449Z,1.97
2022-11-23T21:53:48.125Z,1.60
2022-11-23T21:56:16.909Z,1.20
2022-11-23T21:58:45.539Z,1.90
2022-11-23T22:01:14.758Z,2.33
2022-11-23T22:03:43.537Z,1.37
2022-11-23T22:06:17.221Z,1.63
2022-11-23T22:08:50.148Z,1.60
2022-11-23T22:11:18.954Z,1.90
2022-11-23T22:13:47.475Z,1.63
2022-11-23T22:16:16.433Z,1.93
2022-11-23T22:18:44.966Z,1.33
2022-11-23T22:21:13.334Z,1.50
2022-11-23T22:23:41.709Z,1.80
2022-11-23T22:26:11.731Z,1.90
2022-11-23T22:28:40.751Z,1.53
2022-11-23T22:31:09.524Z,1.53
2022-11-23T22:33:38.098Z,1.90
2022-11-23T22:36:06.949Z,1.90
2022-11-23T22:38:35.218Z,1.57
2022-11-23T22:41:03.598Z,1.47
2022-11-23T22:43:33.220Z,1.97
2022-11-23T22:46:05.719Z,1.80
2022-11-23T22:48:34.280Z,1.30
2022-11-23T22:51:02.669Z,2.23
2022-11-23T22:53:31.050Z,2.47
2022-11-23T22:56:01.219Z,2.57
2022-11-23T22:58:29.521Z,3.20
2022-11-23T23:00:59.298Z,4.37
2022-11-23T23:03:27.641Z,4.77
2022-11-23T23:05:56.200Z,4.50
2022-11-23T23:08:24.511Z,3.60
2022-11-23T23:10:52.966Z,4.00
2022-11-23T23:13:21.314Z,5.10
2022-11-23T23:15:49.775Z,5.10
2022-11-23T23:18:19.468Z,3.87
2022-11-23T23:20:47.730Z,4.20
2022-11-23T23:23:16.091Z,3.77
2022-11-23T23:25:44.545Z,4.40
2022-11-23T23:28:12.808Z,4.13
2022-11-23T23:30:41.231Z,3.67
2022-11-23T23:33:09.504Z,3.53
2022-11-23T23:35:39.502Z,4.50
2022-11-23T23:38:07.818Z,3.83
2022-11-23T23:40:36.102Z,4.37
2022-11-23T23:43:04.362Z,4.13
2022-11-23T23:45:33.100Z,3.97
2022-11-23T23:48:01.490Z,3.83
2022-11-23T23:50:29.797Z,3.80
2022-11-23T23:52:59.418Z,4.10
2022-11-23T23:55:27.636Z,3.20
2022-11-23T23:57:55.978Z,3.80
